sensor_id;sensor_type;location;lat;lon;timestamp;P1;durP1;ratioP1;P2;durP2;ratioP2
68484;SDS011;55472;50.060;21.960;2022-12-29T00:00:11;6.90;;;2.90;;
68484;SDS011;55472;50.060;21.960;2022-12-29T00:02:58;11.07;;;3.70;;
68484;SDS011;55472;50.060;21.960;2022-12-29T00:05:24;8.03;;;3.37;;
68484;SDS011;55472;50.060;21.960;2022-12-29T00:07:51;6.80;;;2.67;;
68484;SDS011;55472;50.060;21.960;2022-12-29T00:10:17;8.25;;;3.15;;
68484;SDS011;55472;50.060;21.960;2022-12-29T00:12:43;9.48;;;3.45;;
68484;SDS011;55472;50.060;21.960;2022-12-29T00:15:32;13.88;;;3.45;;
68484;SDS011;55472;50.060;21.960;2022-12-29T00:18:04;7.87;;;3.10;;
68484;SDS011;55472;50.060;21.960;2022-12-29T00:20:35;11.38;;;3.58;;
68484;SDS011;55472;50.060;21.960;2022-12-29T00:23:20;5.68;;;2.85;;
68484;SDS011;55472;50.060;21.960;2022-12-29T00:26:12;7.43;;;3.00;;
68484;SDS011;55472;50.060;21.960;2022-12-29T00:28:59;8.25;;;2.92;;
68484;SDS011;55472;50.060;21.960;2022-12-29T00:31:44;9.17;;;3.20;;
68484;SDS011;55472;50.060;21.960;2022-12-29T00:34:28;7.22;;;3.17;;
68484;SDS011;55472;50.060;21.960;2022-12-29T00:37:13;8.48;;;2.65;;
68484;SDS011;55472;50.060;21.960;2022-12-29T00:39:40;7.80;;;3.05;;
68484;SDS011;55472;50.060;21.960;2022-12-29T00:42:24;9.57;;;2.97;;
68484;SDS011;55472;50.060;21.960;2022-12-29T00:45:09;7.90;;;2.83;;
68484;SDS011;55472;50.060;21.960;2022-12-29T00:47:35;7.95;;;2.55;;
68484;SDS011;55472;50.060;21.960;2022-12-29T00:50:01;5.70;;;2.20;;
68484;SDS011;55472;50.060;21.960;2022-12-29T00:52:28;15.32;;;3.20;;
68484;SDS011;55472;50.060;21.960;2022-12-29T00:54:54;9.90;;;3.03;;
68484;SDS011;55472;50.060;21.960;2022-12-29T00:57:20;6.10;;;1.97;;
68484;SDS011;55472;50.060;21.960;2022-12-29T00:59:46;8.07;;;2.60;;
68484;SDS011;55472;50.060;21.960;2022-12-29T01:02:12;5.72;;;2.30;;
68484;SDS011;55472;50.060;21.960;2022-12-29T01:04:39;4.78;;;1.85;;
68484;SDS011;55472;50.060;21.960;2022-12-29T01:07:05;10.23;;;2.20;;
68484;SDS011;55472;50.060;21.960;2022-12-29T01:09:31;6.40;;;2.33;;
68484;SDS011;55472;50.060;21.960;2022-12-29T01:12:16;6.68;;;2.28;;
68484;SDS011;55472;50.060;21.960;2022-12-29T01:15:03;7.47;;;2.25;;
68484;SDS011;55472;50.060;21.960;2022-12-29T01:17:30;7.05;;;2.42;;
68484;SDS011;55472;50.060;21.960;2022-12-29T01:19:56;5.00;;;1.95;;
68484;SDS011;55472;50.060;21.960;2022-12-29T01:22:22;7.17;;;2.83;;
68484;SDS011;55472;50.060;21.960;2022-12-29T01:24:48;6.22;;;2.28;;
68484;SDS011;55472;50.060;21.960;2022-12-29T01:27:15;7.35;;;2.33;;
68484;SDS011;55472;50.060;21.960;2022-12-29T01:29:41;7.57;;;2.78;;
68484;SDS011;55472;50.060;21.960;2022-12-29T01:32:07;6.80;;;2.30;;
68484;SDS011;55472;50.060;21.960;2022-12-29T01:34:33;7.60;;;2.10;;
68484;SDS011;55472;50.060;21.960;2022-12-29T01:36:59;5.90;;;1.98;;
68484;SDS011;55472;50.060;21.960;2022-12-29T01:39:26;4.65;;;1.80;;
68484;SDS011;55472;50.060;21.960;2022-12-29T01:41:52;8.68;;;2.40;;
68484;SDS011;55472;50.060;21.960;2022-12-29T01:50:08;6.60;;;1.77;;
68484;SDS011;55472;50.060;21.960;2022-12-29T01:52:42;6.88;;;2.40;;
68484;SDS011;55472;50.060;21.960;2022-12-29T01:55:17;6.03;;;2.40;;
68484;SDS011;55472;50.060;21.960;2022-12-29T01:57:44;6.95;;;2.05;;
68484;SDS011;55472;50.060;21.960;2022-12-29T02:00:15;6.30;;;2.60;;
68484;SDS011;55472;50.060;21.960;2022-12-29T02:02:42;6.53;;;2.20;;
68484;SDS011;55472;50.060;21.960;2022-12-29T02:05:28;6.43;;;2.30;;
68484;SDS011;55472;50.060;21.960;2022-12-29T02:08:20;5.88;;;1.90;;
68484;SDS011;55472;50.060;21.960;2022-12-29T02:10:51;5.82;;;1.77;;
68484;SDS011;55472;50.060;21.960;2022-12-29T02:13:17;6.10;;;2.17;;
68484;SDS011;55472;50.060;21.960;2022-12-29T02:24:16;6.75;;;2.40;;
68484;SDS011;55472;50.060;21.960;2022-12-29T02:32:33;4.80;;;2.10;;
68484;SDS011;55472;50.060;21.960;2022-12-29T02:35:55;5.95;;;1.90;;
68484;SDS011;55472;50.060;21.960;2022-12-29T02:38:34;5.03;;;1.73;;
68484;SDS011;55472;50.060;21.960;2022-12-29T02:44:34;5.00;;;1.92;;
68484;SDS011;55472;50.060;21.960;2022-12-29T02:47:44;5.30;;;1.67;;
68484;SDS011;55472;50.060;21.960;2022-12-29T02:50:46;6.82;;;1.85;;
68484;SDS011;55472;50.060;21.960;2022-12-29T02:53:24;6.20;;;1.80;;
68484;SDS011;55472;50.060;21.960;2022-12-29T02:56:10;6.53;;;1.90;;
68484;SDS011;55472;50.060;21.960;2022-12-29T02:58:36;6.43;;;1.85;;
68484;SDS011;55472;50.060;21.960;2022-12-29T03:06:38;6.35;;;2.15;;
68484;SDS011;55472;50.060;21.960;2022-12-29T03:09:43;3.87;;;1.30;;
68484;SDS011;55472;50.060;21.960;2022-12-29T03:12:30;6.03;;;1.75;;
68484;SDS011;55472;50.060;21.960;2022-12-29T03:15:34;6.05;;;1.73;;
68484;SDS011;55472;50.060;21.960;2022-12-29T03:21:50;6.05;;;2.00;;
68484;SDS011;55472;50.060;21.960;2022-12-29T03:24:41;4.70;;;1.63;;
68484;SDS011;55472;50.060;21.960;2022-12-29T03:27:14;5.93;;;1.50;;
68484;SDS011;55472;50.060;21.960;2022-12-29T03:29:46;5.20;;;1.83;;
68484;SDS011;55472;50.060;21.960;2022-12-29T03:32:23;4.15;;;1.60;;
68484;SDS011;55472;50.060;21.960;2022-12-29T03:34:57;6.22;;;1.80;;
68484;SDS011;55472;50.060;21.960;2022-12-29T03:37:26;5.87;;;1.67;;
68484;SDS011;55472;50.060;21.960;2022-12-29T03:39:59;5.57;;;1.63;;
68484;SDS011;55472;50.060;21.960;2022-12-29T03:42:26;4.97;;;1.90;;
68484;SDS011;55472;50.060;21.960;2022-12-29T03:44:56;5.30;;;1.92;;
68484;SDS011;55472;50.060;21.960;2022-12-29T03:47:23;6.60;;;1.88;;
68484;SDS011;55472;50.060;21.960;2022-12-29T03:49:50;6.73;;;1.83;;
68484;SDS011;55472;50.060;21.960;2022-12-29T03:52:17;7.40;;;1.98;;
68484;SDS011;55472;50.060;21.960;2022-12-29T03:54:44;8.60;;;2.10;;
68484;SDS011;55472;50.060;21.960;2022-12-29T03:57:10;6.65;;;1.50;;
68484;SDS011;55472;50.060;21.960;2022-12-29T03:59:36;5.80;;;1.67;;
68484;SDS011;55472;50.060;21.960;2022-12-29T04:02:03;4.07;;;1.40;;
68484;SDS011;55472;50.060;21.960;2022-12-29T04:04:29;5.50;;;1.70;;
68484;SDS011;55472;50.060;21.960;2022-12-29T04:06:55;4.95;;;1.73;;
68484;SDS011;55472;50.060;21.960;2022-12-29T04:09:21;3.65;;;1.40;;
68484;SDS011;55472;50.060;21.960;2022-12-29T04:11:47;5.47;;;1.60;;
68484;SDS011;55472;50.060;21.960;2022-12-29T04:14:14;6.33;;;1.67;;
68484;SDS011;55472;50.060;21.960;2022-12-29T04:16:40;4.72;;;1.48;;
68484;SDS011;55472;50.060;21.960;2022-12-29T04:19:06;5.97;;;1.80;;
68484;SDS011;55472;50.060;21.960;2022-12-29T04:21:33;5.30;;;1.33;;
68484;SDS011;55472;50.060;21.960;2022-12-29T04:24:00;8.50;;;1.58;;
68484;SDS011;55472;50.060;21.960;2022-12-29T04:26:26;7.43;;;1.90;;
68484;SDS011;55472;50.060;21.960;2022-12-29T04:28:52;5.38;;;1.10;;
68484;SDS011;55472;50.060;21.960;2022-12-29T04:31:18;4.88;;;1.50;;
68484;SDS011;55472;50.060;21.960;2022-12-29T04:33:45;5.55;;;1.48;;
68484;SDS011;55472;50.060;21.960;2022-12-29T04:36:11;5.30;;;1.55;;
68484;SDS011;55472;50.060;21.960;2022-12-29T04:38:37;5.70;;;1.30;;
68484;SDS011;55472;50.060;21.960;2022-12-29T04:41:03;4.95;;;1.60;;
68484;SDS011;55472;50.060;21.960;2022-12-29T04:43:30;5.05;;;1.48;;
68484;SDS011;55472;50.060;21.960;2022-12-29T04:45:56;3.92;;;0.95;;
68484;SDS011;55472;50.060;21.960;2022-12-29T04:48:22;4.82;;;1.38;;
68484;SDS011;55472;50.060;21.960;2022-12-29T04:50:48;5.17;;;1.60;;
68484;SDS011;55472;50.060;21.960;2022-12-29T04:53:15;5.57;;;1.40;;
68484;SDS011;55472;50.060;21.960;2022-12-29T04:55:42;4.47;;;1.60;;
68484;SDS011;55472;50.060;21.960;2022-12-29T04:58:09;4.10;;;1.20;;
68484;SDS011;55472;50.060;21.960;2022-12-29T05:00:35;4.65;;;1.27;;
68484;SDS011;55472;50.060;21.960;2022-12-29T05:03:01;6.23;;;1.40;;
68484;SDS011;55472;50.060;21.960;2022-12-29T05:05:28;5.80;;;1.90;;
68484;SDS011;55472;50.060;21.960;2022-12-29T05:07:54;5.57;;;1.63;;
68484;SDS011;55472;50.060;21.960;2022-12-29T05:10:20;6.32;;;1.90;;
68484;SDS011;55472;50.060;21.960;2022-12-29T05:12:47;5.00;;;1.63;;
68484;SDS011;55472;50.060;21.960;2022-12-29T05:15:13;3.70;;;1.03;;
68484;SDS011;55472;50.060;21.960;2022-12-29T05:17:39;4.78;;;1.38;;
68484;SDS011;55472;50.060;21.960;2022-12-29T05:20:06;6.28;;;1.27;;
68484;SDS011;55472;50.060;21.960;2022-12-29T05:22:33;4.47;;;1.38;;
68484;SDS011;55472;50.060;21.960;2022-12-29T05:24:59;4.97;;;1.65;;
68484;SDS011;55472;50.060;21.960;2022-12-29T05:27:25;7.63;;;2.00;;
68484;SDS011;55472;50.060;21.960;2022-12-29T05:29:52;5.40;;;1.63;;
68484;SDS011;55472;50.060;21.960;2022-12-29T05:32:18;5.85;;;1.40;;
68484;SDS011;55472;50.060;21.960;2022-12-29T05:34:44;7.03;;;1.70;;
68484;SDS011;55472;50.060;21.960;2022-12-29T05:37:10;7.53;;;1.85;;
68484;SDS011;55472;50.060;21.960;2022-12-29T05:39:37;6.20;;;1.97;;
68484;SDS011;55472;50.060;21.960;2022-12-29T05:42:03;5.15;;;1.60;;
68484;SDS011;55472;50.060;21.960;2022-12-29T05:44:29;4.20;;;1.35;;
68484;SDS011;55472;50.060;21.960;2022-12-29T05:46:56;7.25;;;2.00;;
68484;SDS011;55472;50.060;21.960;2022-12-29T05:49:22;6.75;;;2.08;;
68484;SDS011;55472;50.060;21.960;2022-12-29T05:51:48;5.27;;;1.63;;
68484;SDS011;55472;50.060;21.960;2022-12-29T05:54:14;4.93;;;1.70;;
68484;SDS011;55472;50.060;21.960;2022-12-29T05:56:40;7.35;;;1.60;;
68484;SDS011;55472;50.060;21.960;2022-12-29T05:59:06;6.22;;;1.30;;
68484;SDS011;55472;50.060;21.960;2022-12-29T06:01:33;5.93;;;2.00;;
68484;SDS011;55472;50.060;21.960;2022-12-29T06:03:59;6.57;;;1.60;;
68484;SDS011;55472;50.060;21.960;2022-12-29T06:06:26;4.05;;;1.35;;
68484;SDS011;55472;50.060;21.960;2022-12-29T06:08:52;5.85;;;1.70;;
68484;SDS011;55472;50.060;21.960;2022-12-29T06:11:18;5.80;;;1.70;;
68484;SDS011;55472;50.060;21.960;2022-12-29T06:13:44;4.18;;;1.17;;
68484;SDS011;55472;50.060;21.960;2022-12-29T06:16:11;4.53;;;1.63;;
68484;SDS011;55472;50.060;21.960;2022-12-29T06:18:37;5.65;;;1.58;;
68484;SDS011;55472;50.060;21.960;2022-12-29T06:21:04;5.82;;;2.03;;
68484;SDS011;55472;50.060;21.960;2022-12-29T06:23:30;6.60;;;1.60;;
68484;SDS011;55472;50.060;21.960;2022-12-29T06:25:57;7.38;;;2.50;;
68484;SDS011;55472;50.060;21.960;2022-12-29T06:28:23;5.30;;;1.57;;
68484;SDS011;55472;50.060;21.960;2022-12-29T06:30:50;5.38;;;2.00;;
68484;SDS011;55472;50.060;21.960;2022-12-29T06:33:16;4.13;;;1.50;;
68484;SDS011;55472;50.060;21.960;2022-12-29T06:35:43;5.28;;;1.52;;
68484;SDS011;55472;50.060;21.960;2022-12-29T06:38:11;4.97;;;1.55;;
68484;SDS011;55472;50.060;21.960;2022-12-29T06:40:37;6.17;;;1.70;;
68484;SDS011;55472;50.060;21.960;2022-12-29T06:43:04;5.43;;;1.85;;
68484;SDS011;55472;50.060;21.960;2022-12-29T06:45:31;4.82;;;1.70;;
68484;SDS011;55472;50.060;21.960;2022-12-29T06:47:57;5.88;;;1.60;;
68484;SDS011;55472;50.060;21.960;2022-12-29T06:50:23;6.35;;;2.08;;
68484;SDS011;55472;50.060;21.960;2022-12-29T06:52:49;6.47;;;1.90;;
68484;SDS011;55472;50.060;21.960;2022-12-29T06:55:15;4.93;;;1.73;;
68484;SDS011;55472;50.060;21.960;2022-12-29T06:57:41;5.65;;;1.77;;
68484;SDS011;55472;50.060;21.960;2022-12-29T07:00:08;7.05;;;1.80;;
68484;SDS011;55472;50.060;21.960;2022-12-29T07:02:35;10.85;;;3.92;;
68484;SDS011;55472;50.060;21.960;2022-12-29T07:05:01;9.20;;;3.20;;
68484;SDS011;55472;50.060;21.960;2022-12-29T07:07:28;6.55;;;2.25;;
68484;SDS011;55472;50.060;21.960;2022-12-29T07:09:54;16.83;;;8.70;;
68484;SDS011;55472;50.060;21.960;2022-12-29T07:12:20;14.57;;;6.55;;
68484;SDS011;55472;50.060;21.960;2022-12-29T07:14:47;15.45;;;7.45;;
68484;SDS011;55472;50.060;21.960;2022-12-29T07:17:13;7.57;;;3.23;;
68484;SDS011;55472;50.060;21.960;2022-12-29T07:19:40;7.97;;;3.08;;
68484;SDS011;55472;50.060;21.960;2022-12-29T07:22:06;8.63;;;3.03;;
68484;SDS011;55472;50.060;21.960;2022-12-29T07:24:32;5.47;;;2.15;;
68484;SDS011;55472;50.060;21.960;2022-12-29T07:26:58;4.55;;;1.55;;
68484;SDS011;55472;50.060;21.960;2022-12-29T07:29:24;7.23;;;2.20;;
68484;SDS011;55472;50.060;21.960;2022-12-29T07:31:51;6.78;;;2.47;;
68484;SDS011;55472;50.060;21.960;2022-12-29T07:34:17;5.60;;;1.77;;
68484;SDS011;55472;50.060;21.960;2022-12-29T07:36:43;7.43;;;2.08;;
68484;SDS011;55472;50.060;21.960;2022-12-29T07:39:09;9.18;;;2.97;;
68484;SDS011;55472;50.060;21.960;2022-12-29T07:41:36;6.30;;;2.10;;
68484;SDS011;55472;50.060;21.960;2022-12-29T07:44:03;8.73;;;3.03;;
68484;SDS011;55472;50.060;21.960;2022-12-29T07:46:29;7.22;;;2.53;;
68484;SDS011;55472;50.060;21.960;2022-12-29T07:48:55;13.73;;;3.97;;
68484;SDS011;55472;50.060;21.960;2022-12-29T07:51:21;8.93;;;2.67;;
68484;SDS011;55472;50.060;21.960;2022-12-29T07:53:48;5.87;;;2.07;;
68484;SDS011;55472;50.060;21.960;2022-12-29T07:56:14;7.18;;;2.55;;
68484;SDS011;55472;50.060;21.960;2022-12-29T07:58:41;6.05;;;2.17;;
68484;SDS011;55472;50.060;21.960;2022-12-29T08:01:07;6.57;;;2.58;;
68484;SDS011;55472;50.060;21.960;2022-12-29T08:03:34;9.27;;;2.88;;
68484;SDS011;55472;50.060;21.960;2022-12-29T08:06:01;11.17;;;3.43;;
68484;SDS011;55472;50.060;21.960;2022-12-29T08:08:28;6.38;;;2.35;;
68484;SDS011;55472;50.060;21.960;2022-12-29T08:10:54;9.45;;;2.78;;
68484;SDS011;55472;50.060;21.960;2022-12-29T08:13:20;10.55;;;3.42;;
68484;SDS011;55472;50.060;21.960;2022-12-29T08:15:46;11.30;;;3.70;;
68484;SDS011;55472;50.060;21.960;2022-12-29T08:18:12;8.57;;;2.83;;
68484;SDS011;55472;50.060;21.960;2022-12-29T08:20:39;14.40;;;4.00;;
68484;SDS011;55472;50.060;21.960;2022-12-29T08:23:05;10.18;;;3.55;;
68484;SDS011;55472;50.060;21.960;2022-12-29T08:25:31;54.05;;;11.07;;
68484;SDS011;55472;50.060;21.960;2022-12-29T08:27:57;14.57;;;5.47;;
68484;SDS011;55472;50.060;21.960;2022-12-29T08:30:23;11.03;;;3.90;;
68484;SDS011;55472;50.060;21.960;2022-12-29T08:32:50;9.38;;;3.65;;
68484;SDS011;55472;50.060;21.960;2022-12-29T08:35:16;10.90;;;4.88;;
68484;SDS011;55472;50.060;21.960;2022-12-29T08:37:42;12.52;;;3.63;;
68484;SDS011;55472;50.060;21.960;2022-12-29T08:40:08;11.23;;;3.42;;
68484;SDS011;55472;50.060;21.960;2022-12-29T08:42:35;7.70;;;2.97;;
68484;SDS011;55472;50.060;21.960;2022-12-29T08:45:01;8.05;;;3.08;;
68484;SDS011;55472;50.060;21.960;2022-12-29T08:47:28;7.25;;;3.00;;
68484;SDS011;55472;50.060;21.960;2022-12-29T08:49:54;10.68;;;2.95;;
68484;SDS011;55472;50.060;21.960;2022-12-29T08:52:21;8.45;;;3.13;;
68484;SDS011;55472;50.060;21.960;2022-12-29T08:54:47;10.20;;;2.90;;
68484;SDS011;55472;50.060;21.960;2022-12-29T08:57:13;12.13;;;3.35;;
68484;SDS011;55472;50.060;21.960;2022-12-29T08:59:39;10.57;;;3.30;;
68484;SDS011;55472;50.060;21.960;2022-12-29T09:02:05;12.13;;;3.17;;
68484;SDS011;55472;50.060;21.960;2022-12-29T09:04:35;6.90;;;2.47;;
68484;SDS011;55472;50.060;21.960;2022-12-29T09:07:02;8.90;;;2.87;;
68484;SDS011;55472;50.060;21.960;2022-12-29T09:09:28;7.78;;;3.25;;
68484;SDS011;55472;50.060;21.960;2022-12-29T09:11:54;8.48;;;2.90;;
68484;SDS011;55472;50.060;21.960;2022-12-29T09:14:20;8.07;;;3.00;;
68484;SDS011;55472;50.060;21.960;2022-12-29T09:16:53;8.23;;;2.85;;
68484;SDS011;55472;50.060;21.960;2022-12-29T09:19:38;9.53;;;3.93;;
68484;SDS011;55472;50.060;21.960;2022-12-29T09:22:04;10.48;;;3.47;;
68484;SDS011;55472;50.060;21.960;2022-12-29T09:24:30;6.65;;;2.85;;
68484;SDS011;55472;50.060;21.960;2022-12-29T09:26:57;12.90;;;4.50;;
68484;SDS011;55472;50.060;21.960;2022-12-29T09:29:23;8.25;;;3.40;;
68484;SDS011;55472;50.060;21.960;2022-12-29T09:31:50;11.57;;;3.47;;
68484;SDS011;55472;50.060;21.960;2022-12-29T09:34:16;10.02;;;3.50;;
68484;SDS011;55472;50.060;21.960;2022-12-29T09:36:43;11.23;;;3.60;;
68484;SDS011;55472;50.060;21.960;2022-12-29T09:39:09;10.00;;;3.25;;
68484;SDS011;55472;50.060;21.960;2022-12-29T09:41:36;11.07;;;3.67;;
68484;SDS011;55472;50.060;21.960;2022-12-29T09:44:56;29.53;;;11.07;;
68484;SDS011;55472;50.060;21.960;2022-12-29T09:47:11;17.42;;;7.60;;
68484;SDS011;55472;50.060;21.960;2022-12-29T09:49:42;10.20;;;4.10;;
68484;SDS011;55472;50.060;21.960;2022-12-29T09:55:17;14.02;;;4.70;;
68484;SDS011;55472;50.060;21.960;2022-12-29T09:57:49;11.57;;;4.07;;
68484;SDS011;55472;50.060;21.960;2022-12-29T10:00:33;12.57;;;3.85;;
68484;SDS011;55472;50.060;21.960;2022-12-29T10:03:09;14.20;;;5.03;;
68484;SDS011;55472;50.060;21.960;2022-12-29T10:11:24;9.40;;;4.30;;
68484;SDS011;55472;50.060;21.960;2022-12-29T10:20:20;9.73;;;3.45;;
68484;SDS011;55472;50.060;21.960;2022-12-29T10:26:16;8.30;;;3.23;;
68484;SDS011;55472;50.060;21.960;2022-12-29T10:28:47;9.88;;;3.72;;
68484;SDS011;55472;50.060;21.960;2022-12-29T10:31:24;12.73;;;4.40;;
68484;SDS011;55472;50.060;21.960;2022-12-29T10:34:02;12.98;;;4.38;;
68484;SDS011;55472;50.060;21.960;2022-12-29T10:36:44;11.15;;;4.32;;
68484;SDS011;55472;50.060;21.960;2022-12-29T10:45:02;9.85;;;3.17;;
68484;SDS011;55472;50.060;21.960;2022-12-29T10:47:32;11.07;;;2.97;;
68484;SDS011;55472;50.060;21.960;2022-12-29T10:50:01;8.18;;;3.80;;
68484;SDS011;55472;50.060;21.960;2022-12-29T10:52:28;10.97;;;3.80;;
68484;SDS011;55472;50.060;21.960;2022-12-29T10:55:08;9.98;;;2.97;;
68484;SDS011;55472;50.060;21.960;2022-12-29T10:57:43;11.38;;;3.55;;
68484;SDS011;55472;50.060;21.960;2022-12-29T11:00:15;13.10;;;4.03;;
68484;SDS011;55472;50.060;21.960;2022-12-29T11:02:53;8.20;;;3.03;;
68484;SDS011;55472;50.060;21.960;2022-12-29T11:05:49;9.47;;;3.10;;
68484;SDS011;55472;50.060;21.960;2022-12-29T11:08:27;9.15;;;3.40;;
68484;SDS011;55472;50.060;21.960;2022-12-29T11:11:01;11.95;;;3.47;;
68484;SDS011;55472;50.060;21.960;2022-12-29T11:13:32;6.38;;;3.25;;
68484;SDS011;55472;50.060;21.960;2022-12-29T11:16:01;8.27;;;3.25;;
68484;SDS011;55472;50.060;21.960;2022-12-29T11:21:26;11.30;;;3.10;;
68484;SDS011;55472;50.060;21.960;2022-12-29T11:24:35;11.32;;;3.67;;
68484;SDS011;55472;50.060;21.960;2022-12-29T11:26:55;8.10;;;3.72;;
68484;SDS011;55472;50.060;21.960;2022-12-29T11:29:41;10.60;;;4.00;;
68484;SDS011;55472;50.060;21.960;2022-12-29T11:32:19;10.33;;;4.00;;
68484;SDS011;55472;50.060;21.960;2022-12-29T11:34:49;16.30;;;4.90;;
68484;SDS011;55472;50.060;21.960;2022-12-29T11:37:17;10.77;;;3.35;;
68484;SDS011;55472;50.060;21.960;2022-12-29T11:40:05;7.13;;;3.10;;
68484;SDS011;55472;50.060;21.960;2022-12-29T11:42:51;10.48;;;3.97;;
68484;SDS011;55472;50.060;21.960;2022-12-29T11:45:24;9.97;;;3.70;;
68484;SDS011;55472;50.060;21.960;2022-12-29T11:48:06;10.15;;;3.67;;
68484;SDS011;55472;50.060;21.960;2022-12-29T11:50:43;11.77;;;4.03;;
68484;SDS011;55472;50.060;21.960;2022-12-29T11:56:12;9.57;;;3.70;;
68484;SDS011;55472;50.060;21.960;2022-12-29T11:58:42;10.50;;;4.17;;
68484;SDS011;55472;50.060;21.960;2022-12-29T12:04:05;11.10;;;4.60;;
68484;SDS011;55472;50.060;21.960;2022-12-29T12:07:28;9.07;;;2.92;;
68484;SDS011;55472;50.060;21.960;2022-12-29T12:09:48;7.50;;;3.40;;
68484;SDS011;55472;50.060;21.960;2022-12-29T12:12:34;9.27;;;3.53;;
68484;SDS011;55472;50.060;21.960;2022-12-29T12:15:25;11.07;;;3.95;;
68484;SDS011;55472;50.060;21.960;2022-12-29T12:18:08;9.30;;;3.42;;
68484;SDS011;55472;50.060;21.960;2022-12-29T12:20:50;9.70;;;3.72;;
68484;SDS011;55472;50.060;21.960;2022-12-29T12:23:36;12.55;;;3.90;;
68484;SDS011;55472;50.060;21.960;2022-12-29T12:26:34;9.33;;;3.63;;
68484;SDS011;55472;50.060;21.960;2022-12-29T12:29:20;8.13;;;3.03;;
68484;SDS011;55472;50.060;21.960;2022-12-29T12:31:55;11.63;;;3.92;;
68484;SDS011;55472;50.060;21.960;2022-12-29T12:34:29;9.48;;;3.33;;
68484;SDS011;55472;50.060;21.960;2022-12-29T12:46:18;9.80;;;3.72;;
68484;SDS011;55472;50.060;21.960;2022-12-29T12:56:52;9.23;;;3.70;;
68484;SDS011;55472;50.060;21.960;2022-12-29T12:59:47;12.45;;;4.45;;
68484;SDS011;55472;50.060;21.960;2022-12-29T13:08:44;7.97;;;2.67;;
68484;SDS011;55472;50.060;21.960;2022-12-29T13:14:59;11.85;;;4.70;;
68484;SDS011;55472;50.060;21.960;2022-12-29T13:21:03;10.48;;;3.78;;
68484;SDS011;55472;50.060;21.960;2022-12-29T13:23:49;10.10;;;4.30;;
68484;SDS011;55472;50.060;21.960;2022-12-29T13:31:54;12.68;;;4.40;;
68484;SDS011;55472;50.060;21.960;2022-12-29T13:37:26;10.60;;;4.10;;
68484;SDS011;55472;50.060;21.960;2022-12-29T13:39:56;12.32;;;4.85;;
68484;SDS011;55472;50.060;21.960;2022-12-29T13:42:27;12.35;;;5.03;;
68484;SDS011;55472;50.060;21.960;2022-12-29T13:44:57;8.90;;;2.95;;
68484;SDS011;55472;50.060;21.960;2022-12-29T13:47:35;9.48;;;3.67;;
68484;SDS011;55472;50.060;21.960;2022-12-29T13:50:17;14.23;;;4.60;;
68484;SDS011;55472;50.060;21.960;2022-12-29T13:53:06;12.18;;;4.25;;
68484;SDS011;55472;50.060;21.960;2022-12-29T13:56:19;18.45;;;5.22;;
68484;SDS011;55472;50.060;21.960;2022-12-29T14:05:00;13.10;;;4.50;;
68484;SDS011;55472;50.060;21.960;2022-12-29T14:07:29;11.82;;;4.80;;
68484;SDS011;55472;50.060;21.960;2022-12-29T14:10:02;10.15;;;4.07;;
68484;SDS011;55472;50.060;21.960;2022-12-29T14:12:42;13.27;;;4.82;;
68484;SDS011;55472;50.060;21.960;2022-12-29T14:17:39;15.67;;;5.23;;
68484;SDS011;55472;50.060;21.960;2022-12-29T14:20:16;13.55;;;5.32;;
68484;SDS011;55472;50.060;21.960;2022-12-29T14:22:58;16.38;;;5.97;;
68484;SDS011;55472;50.060;21.960;2022-12-29T14:25:57;19.05;;;8.02;;
68484;SDS011;55472;50.060;21.960;2022-12-29T14:28:27;20.30;;;8.98;;
68484;SDS011;55472;50.060;21.960;2022-12-29T14:30:57;17.03;;;5.83;;
68484;SDS011;55472;50.060;21.960;2022-12-29T14:33:32;13.38;;;5.30;;
68484;SDS011;55472;50.060;21.960;2022-12-29T14:39:00;11.05;;;4.88;;
68484;SDS011;55472;50.060;21.960;2022-12-29T14:41:38;15.68;;;4.70;;
68484;SDS011;55472;50.060;21.960;2022-12-29T14:49:24;11.50;;;4.43;;
68484;SDS011;55472;50.060;21.960;2022-12-29T14:51:55;12.82;;;4.00;;
68484;SDS011;55472;50.060;21.960;2022-12-29T14:54:44;12.60;;;4.05;;
68484;SDS011;55472;50.060;21.960;2022-12-29T14:57:21;11.67;;;4.87;;
68484;SDS011;55472;50.060;21.960;2022-12-29T15:00:06;15.55;;;6.10;;
68484;SDS011;55472;50.060;21.960;2022-12-29T15:02:44;18.42;;;7.07;;
68484;SDS011;55472;50.060;21.960;2022-12-29T15:05:36;15.93;;;6.05;;
68484;SDS011;55472;50.060;21.960;2022-12-29T15:08:10;18.55;;;6.80;;
68484;SDS011;55472;50.060;21.960;2022-12-29T15:10:44;15.13;;;5.43;;
68484;SDS011;55472;50.060;21.960;2022-12-29T15:13:20;18.30;;;6.55;;
68484;SDS011;55472;50.060;21.960;2022-12-29T15:15:57;24.42;;;8.60;;
68484;SDS011;55472;50.060;21.960;2022-12-29T15:18:28;21.48;;;7.28;;
68484;SDS011;55472;50.060;21.960;2022-12-29T15:20:57;18.85;;;8.40;;
68484;SDS011;55472;50.060;21.960;2022-12-29T15:23:29;16.67;;;6.90;;
68484;SDS011;55472;50.060;21.960;2022-12-29T15:25:59;17.67;;;6.80;;
68484;SDS011;55472;50.060;21.960;2022-12-29T15:28:42;22.13;;;8.20;;
68484;SDS011;55472;50.060;21.960;2022-12-29T15:31:12;20.88;;;7.88;;
68484;SDS011;55472;50.060;21.960;2022-12-29T15:33:50;18.65;;;7.18;;
68484;SDS011;55472;50.060;21.960;2022-12-29T15:36:26;18.83;;;6.73;;
68484;SDS011;55472;50.060;21.960;2022-12-29T15:38:55;18.30;;;7.32;;
68484;SDS011;55472;50.060;21.960;2022-12-29T15:41:25;20.52;;;7.38;;
68484;SDS011;55472;50.060;21.960;2022-12-29T15:44:23;17.50;;;6.20;;
68484;SDS011;55472;50.060;21.960;2022-12-29T15:47:24;21.90;;;6.93;;
68484;SDS011;55472;50.060;21.960;2022-12-29T15:50:15;20.40;;;7.20;;
68484;SDS011;55472;50.060;21.960;2022-12-29T15:52:57;18.83;;;7.53;;
68484;SDS011;55472;50.060;21.960;2022-12-29T15:55:45;20.50;;;7.70;;
68484;SDS011;55472;50.060;21.960;2022-12-29T15:58:20;25.25;;;8.20;;
68484;SDS011;55472;50.060;21.960;2022-12-29T16:00:53;25.85;;;7.88;;
68484;SDS011;55472;50.060;21.960;2022-12-29T16:03:26;16.27;;;7.03;;
68484;SDS011;55472;50.060;21.960;2022-12-29T16:08:58;20.80;;;7.90;;
68484;SDS011;55472;50.060;21.960;2022-12-29T16:11:27;19.65;;;7.88;;
68484;SDS011;55472;50.060;21.960;2022-12-29T16:14:00;18.52;;;6.95;;
68484;SDS011;55472;50.060;21.960;2022-12-29T16:16:37;14.97;;;6.30;;
68484;SDS011;55472;50.060;21.960;2022-12-29T16:19:11;18.08;;;6.60;;
68484;SDS011;55472;50.060;21.960;2022-12-29T16:21:49;17.13;;;6.75;;
68484;SDS011;55472;50.060;21.960;2022-12-29T16:24:17;16.10;;;7.03;;
68484;SDS011;55472;50.060;21.960;2022-12-29T16:26:51;20.42;;;7.40;;
68484;SDS011;55472;50.060;21.960;2022-12-29T16:29:28;12.67;;;5.27;;
68484;SDS011;55472;50.060;21.960;2022-12-29T16:31:57;14.93;;;6.43;;
68484;SDS011;55472;50.060;21.960;2022-12-29T16:34:29;18.70;;;7.22;;
68484;SDS011;55472;50.060;21.960;2022-12-29T16:40:51;20.80;;;7.53;;
68484;SDS011;55472;50.060;21.960;2022-12-29T16:42:56;25.43;;;7.97;;
68484;SDS011;55472;50.060;21.960;2022-12-29T16:48:15;19.20;;;7.38;;
68484;SDS011;55472;50.060;21.960;2022-12-29T16:50:47;20.55;;;7.97;;
68484;SDS011;55472;50.060;21.960;2022-12-29T16:55:52;21.20;;;7.17;;
68484;SDS011;55472;50.060;21.960;2022-12-29T16:58:24;23.70;;;7.72;;
68484;SDS011;55472;50.060;21.960;2022-12-29T17:00:56;20.55;;;7.30;;
68484;SDS011;55472;50.060;21.960;2022-12-29T17:03:33;24.02;;;7.80;;
68484;SDS011;55472;50.060;21.960;2022-12-29T17:06:08;23.27;;;7.53;;
68484;SDS011;55472;50.060;21.960;2022-12-29T17:08:44;23.33;;;7.53;;
68484;SDS011;55472;50.060;21.960;2022-12-29T17:11:18;21.52;;;6.95;;